sensor_id;sensor_type;location;lat;lon;timestamp;P1;durP1;ratioP1;P2;durP2;ratioP2
64950;SDS011;51482;47.014;7.652;2023-08-06T00:00:24;2.65;;;1.70;;
64950;SDS011;51482;47.014;7.652;2023-08-06T00:02:50;2.72;;;2.13;;
64950;SDS011;51482;47.014;7.652;2023-08-06T00:05:15;1.88;;;1.70;;
64950;SDS011;51482;47.014;7.652;2023-08-06T00:07:49;1.70;;;1.60;;
64950;SDS011;51482;47.014;7.652;2023-08-06T00:10:16;2.13;;;1.70;;
64950;SDS011;51482;47.014;7.652;2023-08-06T00:12:42;4.75;;;2.00;;
64950;SDS011;51482;47.014;7.652;2023-08-06T00:15:08;3.83;;;1.80;;
64950;SDS011;51482;47.014;7.652;2023-08-06T00:17:35;2.50;;;2.30;;
64950;SDS011;51482;47.014;7.652;2023-08-06T00:20:01;1.90;;;1.65;;
64950;SDS011;51482;47.014;7.652;2023-08-06T00:22:31;3.55;;;1.83;;
64950;SDS011;51482;47.014;7.652;2023-08-06T00:24:57;2.80;;;1.80;;
64950;SDS011;51482;47.014;7.652;2023-08-06T00:27:23;3.10;;;1.85;;
64950;SDS011;51482;47.014;7.652;2023-08-06T00:29:49;2.15;;;1.90;;
64950;SDS011;51482;47.014;7.652;2023-08-06T00:32:14;1.80;;;1.67;;
64950;SDS011;51482;47.014;7.652;2023-08-06T00:34:40;2.25;;;2.05;;
64950;SDS011;51482;47.014;7.652;2023-08-06T00:37:05;2.75;;;1.83;;
64950;SDS011;51482;47.014;7.652;2023-08-06T00:39:31;2.50;;;1.88;;
64950;SDS011;51482;47.014;7.652;2023-08-06T00:41:56;3.20;;;1.90;;
64950;SDS011;51482;47.014;7.652;2023-08-06T00:44:23;2.10;;;1.90;;
64950;SDS011;51482;47.014;7.652;2023-08-06T00:46:48;2.00;;;1.90;;
64950;SDS011;51482;47.014;7.652;2023-08-06T00:49:14;2.17;;;1.95;;
64950;SDS011;51482;47.014;7.652;2023-08-06T00:51:40;3.53;;;2.30;;
64950;SDS011;51482;47.014;7.652;2023-08-06T00:54:06;3.13;;;1.77;;
64950;SDS011;51482;47.014;7.652;2023-08-06T00:56:32;2.90;;;1.98;;
64950;SDS011;51482;47.014;7.652;2023-08-06T00:59:00;2.10;;;1.77;;
64950;SDS011;51482;47.014;7.652;2023-08-06T01:01:26;2.67;;;1.90;;
64950;SDS011;51482;47.014;7.652;2023-08-06T01:03:52;2.03;;;1.80;;
64950;SDS011;51482;47.014;7.652;2023-08-06T01:06:19;2.22;;;1.90;;
64950;SDS011;51482;47.014;7.652;2023-08-06T01:08:58;2.08;;;1.80;;
64950;SDS011;51482;47.014;7.652;2023-08-06T01:11:42;2.20;;;1.98;;
64950;SDS011;51482;47.014;7.652;2023-08-06T01:14:22;2.05;;;1.80;;
64950;SDS011;51482;47.014;7.652;2023-08-06T01:17:07;3.03;;;1.70;;
64950;SDS011;51482;47.014;7.652;2023-08-06T01:19:33;2.17;;;1.80;;
64950;SDS011;51482;47.014;7.652;2023-08-06T01:21:58;1.88;;;1.77;;
64950;SDS011;51482;47.014;7.652;2023-08-06T01:24:24;2.55;;;2.00;;
64950;SDS011;51482;47.014;7.652;2023-08-06T01:27:11;2.55;;;2.10;;
64950;SDS011;51482;47.014;7.652;2023-08-06T01:29:39;1.92;;;1.80;;
64950;SDS011;51482;47.014;7.652;2023-08-06T01:32:10;1.75;;;1.65;;
64950;SDS011;51482;47.014;7.652;2023-08-06T01:34:39;2.45;;;2.13;;
64950;SDS011;51482;47.014;7.652;2023-08-06T01:37:06;2.03;;;1.80;;
64950;SDS011;51482;47.014;7.652;2023-08-06T01:39:35;2.40;;;2.20;;
64950;SDS011;51482;47.014;7.652;2023-08-06T01:42:00;2.53;;;2.00;;
64950;SDS011;51482;47.014;7.652;2023-08-06T01:44:26;2.45;;;1.77;;
64950;SDS011;51482;47.014;7.652;2023-08-06T01:46:52;2.58;;;2.17;;
64950;SDS011;51482;47.014;7.652;2023-08-06T01:49:17;2.13;;;1.77;;
64950;SDS011;51482;47.014;7.652;2023-08-06T01:51:43;2.35;;;2.15;;
64950;SDS011;51482;47.014;7.652;2023-08-06T01:54:08;2.17;;;1.65;;
64950;SDS011;51482;47.014;7.652;2023-08-06T01:56:34;2.33;;;2.13;;
64950;SDS011;51482;47.014;7.652;2023-08-06T01:58:59;2.40;;;1.92;;
64950;SDS011;51482;47.014;7.652;2023-08-06T02:01:25;1.98;;;1.80;;
64950;SDS011;51482;47.014;7.652;2023-08-06T02:03:50;2.10;;;1.90;;
64950;SDS011;51482;47.014;7.652;2023-08-06T02:06:16;2.95;;;1.80;;
64950;SDS011;51482;47.014;7.652;2023-08-06T02:08:41;2.50;;;2.30;;
64950;SDS011;51482;47.014;7.652;2023-08-06T02:11:07;2.58;;;1.77;;
64950;SDS011;51482;47.014;7.652;2023-08-06T02:13:32;3.40;;;1.88;;
64950;SDS011;51482;47.014;7.652;2023-08-06T02:15:58;1.83;;;1.70;;
64950;SDS011;51482;47.014;7.652;2023-08-06T02:18:23;2.60;;;1.77;;
64950;SDS011;51482;47.014;7.652;2023-08-06T02:20:55;2.45;;;1.95;;
64950;SDS011;51482;47.014;7.652;2023-08-06T02:23:22;2.70;;;2.10;;
64950;SDS011;51482;47.014;7.652;2023-08-06T02:25:48;2.13;;;1.90;;
64950;SDS011;51482;47.014;7.652;2023-08-06T02:28:13;2.33;;;1.70;;
64950;SDS011;51482;47.014;7.652;2023-08-06T02:30:39;2.00;;;1.90;;
64950;SDS011;51482;47.014;7.652;2023-08-06T02:33:04;2.20;;;1.92;;
64950;SDS011;51482;47.014;7.652;2023-08-06T02:35:30;2.97;;;1.90;;
64950;SDS011;51482;47.014;7.652;2023-08-06T02:37:55;2.22;;;2.03;;
64950;SDS011;51482;47.014;7.652;2023-08-06T02:40:21;1.60;;;1.50;;
64950;SDS011;51482;47.014;7.652;2023-08-06T02:42:46;3.72;;;2.00;;
64950;SDS011;51482;47.014;7.652;2023-08-06T02:45:12;5.47;;;2.60;;
64950;SDS011;51482;47.014;7.652;2023-08-06T02:47:37;3.50;;;2.22;;
64950;SDS011;51482;47.014;7.652;2023-08-06T02:50:03;2.00;;;1.55;;
64950;SDS011;51482;47.014;7.652;2023-08-06T02:52:29;2.03;;;1.83;;
64950;SDS011;51482;47.014;7.652;2023-08-06T02:54:54;2.60;;;1.52;;
64950;SDS011;51482;47.014;7.652;2023-08-06T02:57:20;2.42;;;1.40;;
64950;SDS011;51482;47.014;7.652;2023-08-06T02:59:45;2.15;;;2.03;;
64950;SDS011;51482;47.014;7.652;2023-08-06T03:02:11;2.22;;;1.95;;
64950;SDS011;51482;47.014;7.652;2023-08-06T03:04:36;2.47;;;1.95;;
64950;SDS011;51482;47.014;7.652;2023-08-06T03:07:02;2.45;;;1.58;;
64950;SDS011;51482;47.014;7.652;2023-08-06T03:09:27;2.72;;;1.70;;
64950;SDS011;51482;47.014;7.652;2023-08-06T03:11:53;3.25;;;1.77;;
64950;SDS011;51482;47.014;7.652;2023-08-06T03:14:18;1.95;;;1.60;;
64950;SDS011;51482;47.014;7.652;2023-08-06T03:16:44;2.85;;;2.13;;
64950;SDS011;51482;47.014;7.652;2023-08-06T03:19:09;2.28;;;1.48;;
64950;SDS011;51482;47.014;7.652;2023-08-06T03:21:35;3.25;;;1.92;;
64950;SDS011;51482;47.014;7.652;2023-08-06T03:24:00;1.85;;;1.45;;
64950;SDS011;51482;47.014;7.652;2023-08-06T03:26:26;2.10;;;1.30;;
64950;SDS011;51482;47.014;7.652;2023-08-06T03:28:51;2.92;;;1.65;;
64950;SDS011;51482;47.014;7.652;2023-08-06T03:31:17;1.98;;;1.42;;
64950;SDS011;51482;47.014;7.652;2023-08-06T03:33:42;1.60;;;1.50;;
64950;SDS011;51482;47.014;7.652;2023-08-06T03:36:08;2.78;;;2.00;;
64950;SDS011;51482;47.014;7.652;2023-08-06T03:38:33;2.55;;;1.40;;
64950;SDS011;51482;47.014;7.652;2023-08-06T03:40:59;3.22;;;1.70;;
64950;SDS011;51482;47.014;7.652;2023-08-06T03:43:24;1.85;;;1.40;;
64950;SDS011;51482;47.014;7.652;2023-08-06T03:45:50;2.17;;;1.63;;
64950;SDS011;51482;47.014;7.652;2023-08-06T03:48:15;3.17;;;1.73;;
64950;SDS011;51482;47.014;7.652;2023-08-06T03:50:41;2.33;;;1.90;;
64950;SDS011;51482;47.014;7.652;2023-08-06T03:53:07;3.78;;;1.40;;
64950;SDS011;51482;47.014;7.652;2023-08-06T03:55:32;1.52;;;1.27;;
64950;SDS011;51482;47.014;7.652;2023-08-06T03:57:58;2.72;;;1.30;;
64950;SDS011;51482;47.014;7.652;2023-08-06T04:00:23;2.05;;;1.73;;
64950;SDS011;51482;47.014;7.652;2023-08-06T04:02:48;3.30;;;2.25;;
64950;SDS011;51482;47.014;7.652;2023-08-06T04:05:15;1.55;;;1.40;;
64950;SDS011;51482;47.014;7.652;2023-08-06T04:07:40;1.65;;;1.50;;
64950;SDS011;51482;47.014;7.652;2023-08-06T04:10:06;3.00;;;1.40;;
64950;SDS011;51482;47.014;7.652;2023-08-06T04:12:32;2.40;;;1.75;;
64950;SDS011;51482;47.014;7.652;2023-08-06T04:15:01;1.60;;;1.48;;
64950;SDS011;51482;47.014;7.652;2023-08-06T04:17:28;1.55;;;1.40;;
64950;SDS011;51482;47.014;7.652;2023-08-06T04:19:54;1.55;;;1.40;;
64950;SDS011;51482;47.014;7.652;2023-08-06T04:22:23;2.25;;;1.48;;
64950;SDS011;51482;47.014;7.652;2023-08-06T04:24:48;2.00;;;1.80;;
64950;SDS011;51482;47.014;7.652;2023-08-06T04:27:14;1.90;;;1.50;;
64950;SDS011;51482;47.014;7.652;2023-08-06T04:29:40;1.70;;;1.60;;
64950;SDS011;51482;47.014;7.652;2023-08-06T04:32:08;1.65;;;1.10;;
64950;SDS011;51482;47.014;7.652;2023-08-06T04:34:34;1.65;;;1.45;;
64950;SDS011;51482;47.014;7.652;2023-08-06T04:37:01;3.80;;;2.10;;
64950;SDS011;51482;47.014;7.652;2023-08-06T04:39:27;1.88;;;1.50;;
64950;SDS011;51482;47.014;7.652;2023-08-06T04:41:52;2.40;;;1.67;;
64950;SDS011;51482;47.014;7.652;2023-08-06T04:44:18;1.63;;;1.25;;
64950;SDS011;51482;47.014;7.652;2023-08-06T04:46:43;3.00;;;1.77;;
64950;SDS011;51482;47.014;7.652;2023-08-06T04:49:09;1.77;;;1.60;;
64950;SDS011;51482;47.014;7.652;2023-08-06T04:51:35;1.90;;;1.33;;
64950;SDS011;51482;47.014;7.652;2023-08-06T04:54:00;3.97;;;1.50;;
64950;SDS011;51482;47.014;7.652;2023-08-06T04:56:26;1.77;;;1.30;;
64950;SDS011;51482;47.014;7.652;2023-08-06T04:58:52;1.90;;;1.58;;
64950;SDS011;51482;47.014;7.652;2023-08-06T05:01:18;3.65;;;1.25;;
64950;SDS011;51482;47.014;7.652;2023-08-06T05:03:43;1.20;;;1.20;;
64950;SDS011;51482;47.014;7.652;2023-08-06T05:06:09;2.30;;;1.33;;
64950;SDS011;51482;47.014;7.652;2023-08-06T05:08:35;1.42;;;1.33;;
64950;SDS011;51482;47.014;7.652;2023-08-06T05:11:01;2.58;;;1.65;;
64950;SDS011;51482;47.014;7.652;2023-08-06T05:13:26;0.88;;;0.88;;
64950;SDS011;51482;47.014;7.652;2023-08-06T05:15:55;2.22;;;1.02;;
64950;SDS011;51482;47.014;7.652;2023-08-06T05:18:20;1.33;;;0.98;;
64950;SDS011;51482;47.014;7.652;2023-08-06T05:20:46;2.28;;;1.50;;
64950;SDS011;51482;47.014;7.652;2023-08-06T05:23:12;1.67;;;1.10;;
64950;SDS011;51482;47.014;7.652;2023-08-06T05:25:38;3.03;;;1.33;;
64950;SDS011;51482;47.014;7.652;2023-08-06T05:28:03;1.63;;;1.10;;
64950;SDS011;51482;47.014;7.652;2023-08-06T05:30:29;1.17;;;0.90;;
64950;SDS011;51482;47.014;7.652;2023-08-06T05:32:55;2.63;;;1.13;;
64950;SDS011;51482;47.014;7.652;2023-08-06T05:35:20;1.52;;;1.25;;
64950;SDS011;51482;47.014;7.652;2023-08-06T05:37:47;2.95;;;1.65;;
64950;SDS011;51482;47.014;7.652;2023-08-06T05:40:12;2.38;;;1.13;;
64950;SDS011;51482;47.014;7.652;2023-08-06T05:42:39;1.33;;;1.27;;
64950;SDS011;51482;47.014;7.652;2023-08-06T05:45:05;1.63;;;1.25;;
64950;SDS011;51482;47.014;7.652;2023-08-06T05:47:31;0.95;;;0.93;;
64950;SDS011;51482;47.014;7.652;2023-08-06T05:49:56;2.53;;;1.20;;
64950;SDS011;51482;47.014;7.652;2023-08-06T05:52:22;1.33;;;0.90;;
64950;SDS011;51482;47.014;7.652;2023-08-06T05:54:47;1.50;;;1.40;;
64950;SDS011;51482;47.014;7.652;2023-08-06T05:57:13;1.67;;;1.20;;
64950;SDS011;51482;47.014;7.652;2023-08-06T05:59:40;2.55;;;1.30;;
64950;SDS011;51482;47.014;7.652;2023-08-06T06:02:06;1.85;;;0.98;;
64950;SDS011;51482;47.014;7.652;2023-08-06T06:04:31;1.95;;;0.98;;
64950;SDS011;51482;47.014;7.652;2023-08-06T06:06:57;1.65;;;0.98;;
64950;SDS011;51482;47.014;7.652;2023-08-06T06:09:22;0.75;;;0.75;;
64950;SDS011;51482;47.014;7.652;2023-08-06T06:11:48;1.92;;;1.67;;
64950;SDS011;51482;47.014;7.652;2023-08-06T06:14:15;1.65;;;1.10;;
64950;SDS011;51482;47.014;7.652;2023-08-06T06:16:41;1.50;;;1.40;;
64950;SDS011;51482;47.014;7.652;2023-08-06T06:19:06;2.95;;;0.90;;
64950;SDS011;51482;47.014;7.652;2023-08-06T06:21:32;1.73;;;1.60;;
64950;SDS011;51482;47.014;7.652;2023-08-06T06:23:58;1.38;;;0.75;;
64950;SDS011;51482;47.014;7.652;2023-08-06T06:26:23;0.77;;;0.77;;
64950;SDS011;51482;47.014;7.652;2023-08-06T06:28:49;1.25;;;1.25;;
64950;SDS011;51482;47.014;7.652;2023-08-06T06:31:14;1.02;;;0.90;;
64950;SDS011;51482;47.014;7.652;2023-08-06T06:33:40;1.77;;;1.65;;
64950;SDS011;51482;47.014;7.652;2023-08-06T06:36:05;2.15;;;1.13;;
64950;SDS011;51482;47.014;7.652;2023-08-06T06:38:32;1.33;;;0.82;;
64950;SDS011;51482;47.014;7.652;2023-08-06T06:40:58;1.50;;;0.93;;
64950;SDS011;51482;47.014;7.652;2023-08-06T06:43:24;1.40;;;1.20;;
64950;SDS011;51482;47.014;7.652;2023-08-06T06:45:55;1.38;;;1.38;;
64950;SDS011;51482;47.014;7.652;2023-08-06T06:48:22;2.15;;;1.13;;
64950;SDS011;51482;47.014;7.652;2023-08-06T06:50:48;1.50;;;1.40;;
64950;SDS011;51482;47.014;7.652;2023-08-06T06:53:14;1.13;;;0.93;;
64950;SDS011;51482;47.014;7.652;2023-08-06T06:55:39;2.53;;;1.30;;
64950;SDS011;51482;47.014;7.652;2023-08-06T06:58:05;1.48;;;1.00;;
64950;SDS011;51482;47.014;7.652;2023-08-06T07:00:30;0.98;;;0.90;;
64950;SDS011;51482;47.014;7.652;2023-08-06T07:02:56;1.48;;;1.02;;
64950;SDS011;51482;47.014;7.652;2023-08-06T07:05:21;1.55;;;1.30;;
64950;SDS011;51482;47.014;7.652;2023-08-06T07:07:47;1.42;;;1.33;;
64950;SDS011;51482;47.014;7.652;2023-08-06T07:10:13;1.65;;;0.98;;
64950;SDS011;51482;47.014;7.652;2023-08-06T07:12:38;1.67;;;1.10;;
64950;SDS011;51482;47.014;7.652;2023-08-06T07:15:05;1.67;;;0.82;;
64950;SDS011;51482;47.014;7.652;2023-08-06T07:17:31;0.70;;;0.70;;
64950;SDS011;51482;47.014;7.652;2023-08-06T07:19:57;2.72;;;1.17;;
64950;SDS011;51482;47.014;7.652;2023-08-06T07:22:22;1.95;;;1.00;;
64950;SDS011;51482;47.014;7.652;2023-08-06T07:24:48;1.67;;;1.38;;
64950;SDS011;51482;47.014;7.652;2023-08-06T07:27:13;1.70;;;1.08;;
64950;SDS011;51482;47.014;7.652;2023-08-06T07:29:39;2.17;;;1.55;;
64950;SDS011;51482;47.014;7.652;2023-08-06T07:32:06;1.13;;;1.00;;
64950;SDS011;51482;47.014;7.652;2023-08-06T07:34:32;1.17;;;0.90;;
64950;SDS011;51482;47.014;7.652;2023-08-06T07:36:57;2.60;;;0.90;;
64950;SDS011;51482;47.014;7.652;2023-08-06T07:39:23;1.63;;;1.10;;
64950;SDS011;51482;47.014;7.652;2023-08-06T07:41:49;1.80;;;1.58;;
64950;SDS011;51482;47.014;7.652;2023-08-06T07:44:14;1.20;;;0.95;;
64950;SDS011;51482;47.014;7.652;2023-08-06T07:46:40;2.55;;;1.50;;
64950;SDS011;51482;47.014;7.652;2023-08-06T07:49:06;3.63;;;1.30;;
64950;SDS011;51482;47.014;7.652;2023-08-06T07:51:38;1.48;;;1.17;;
64950;SDS011;51482;47.014;7.652;2023-08-06T07:54:09;5.10;;;1.13;;
64950;SDS011;51482;47.014;7.652;2023-08-06T07:56:35;1.25;;;1.15;;
64950;SDS011;51482;47.014;7.652;2023-08-06T07:59:08;1.13;;;1.03;;
64950;SDS011;51482;47.014;7.652;2023-08-06T08:01:34;2.67;;;1.77;;
64950;SDS011;51482;47.014;7.652;2023-08-06T08:04:09;2.28;;;1.70;;
64950;SDS011;51482;47.014;7.652;2023-08-06T08:06:40;3.33;;;2.05;;
64950;SDS011;51482;47.014;7.652;2023-08-06T08:09:25;2.22;;;1.40;;
64950;SDS011;51482;47.014;7.652;2023-08-06T08:15:31;2.05;;;1.58;;
64950;SDS011;51482;47.014;7.652;2023-08-06T08:17:57;1.40;;;1.30;;
64950;SDS011;51482;47.014;7.652;2023-08-06T08:20:35;2.40;;;1.85;;
64950;SDS011;51482;47.014;7.652;2023-08-06T08:23:38;3.92;;;2.33;;
64950;SDS011;51482;47.014;7.652;2023-08-06T08:26:23;2.42;;;1.40;;
64950;SDS011;51482;47.014;7.652;2023-08-06T08:31:58;2.88;;;1.90;;
64950;SDS011;51482;47.014;7.652;2023-08-06T08:37:45;2.08;;;1.80;;
64950;SDS011;51482;47.014;7.652;2023-08-06T08:40:32;1.58;;;1.42;;
64950;SDS011;51482;47.014;7.652;2023-08-06T08:43:01;1.60;;;1.50;;
64950;SDS011;51482;47.014;7.652;2023-08-06T08:45:28;3.13;;;1.80;;
64950;SDS011;51482;47.014;7.652;2023-08-06T08:48:29;2.03;;;1.42;;
64950;SDS011;51482;47.014;7.652;2023-08-06T08:50:58;1.20;;;0.90;;
64950;SDS011;51482;47.014;7.652;2023-08-06T08:53:31;0.95;;;0.95;;
64950;SDS011;51482;47.014;7.652;2023-08-06T08:55:56;0.90;;;0.90;;
64950;SDS011;51482;47.014;7.652;2023-08-06T08:58:23;0.90;;;0.90;;
64950;SDS011;51482;47.014;7.652;2023-08-06T09:00:51;2.10;;;1.30;;
64950;SDS011;51482;47.014;7.652;2023-08-06T09:03:18;3.83;;;1.00;;
64950;SDS011;51482;47.014;7.652;2023-08-06T09:05:45;2.47;;;1.67;;
64950;SDS011;51482;47.014;7.652;2023-08-06T09:08:19;1.52;;;0.90;;
64950;SDS011;51482;47.014;7.652;2023-08-06T09:10:49;1.85;;;1.63;;
64950;SDS011;51482;47.014;7.652;2023-08-06T09:13:18;0.80;;;0.68;;
64950;SDS011;51482;47.014;7.652;2023-08-06T09:15:54;1.05;;;0.90;;
64950;SDS011;51482;47.014;7.652;2023-08-06T09:18:35;0.63;;;0.63;;
64950;SDS011;51482;47.014;7.652;2023-08-06T09:21:04;1.10;;;1.00;;
64950;SDS011;51482;47.014;7.652;2023-08-06T09:23:40;1.38;;;1.27;;
64950;SDS011;51482;47.014;7.652;2023-08-06T09:26:05;0.65;;;0.65;;
64950;SDS011;51482;47.014;7.652;2023-08-06T09:28:37;1.20;;;1.02;;
64950;SDS011;51482;47.014;7.652;2023-08-06T09:31:18;0.70;;;0.70;;
64950;SDS011;51482;47.014;7.652;2023-08-06T09:33:53;1.52;;;1.15;;
64950;SDS011;51482;47.014;7.652;2023-08-06T09:36:24;0.80;;;0.80;;
64950;SDS011;51482;47.014;7.652;2023-08-06T09:38:53;1.00;;;1.00;;
64950;SDS011;51482;47.014;7.652;2023-08-06T09:41:27;0.93;;;0.75;;
64950;SDS011;51482;47.014;7.652;2023-08-06T09:43:55;0.80;;;0.80;;
64950;SDS011;51482;47.014;7.652;2023-08-06T09:46:21;0.80;;;0.80;;
64950;SDS011;51482;47.014;7.652;2023-08-06T09:48:47;1.48;;;1.38;;
64950;SDS011;51482;47.014;7.652;2023-08-06T09:51:33;1.13;;;1.13;;
64950;SDS011;51482;47.014;7.652;2023-08-06T09:54:39;1.50;;;1.35;;
64950;SDS011;51482;47.014;7.652;2023-08-06T09:57:26;0.98;;;0.90;;
64950;SDS011;51482;47.014;7.652;2023-08-06T10:00:10;0.90;;;0.90;;
64950;SDS011;51482;47.014;7.652;2023-08-06T10:02:40;1.45;;;1.02;;
64950;SDS011;51482;47.014;7.652;2023-08-06T10:05:24;0.98;;;0.98;;
64950;SDS011;51482;47.014;7.652;2023-08-06T10:07:53;1.10;;;1.05;;
64950;SDS011;51482;47.014;7.652;2023-08-06T10:10:20;0.77;;;0.77;;
64950;SDS011;51482;47.014;7.652;2023-08-06T10:12:47;3.22;;;3.03;;
64950;SDS011;51482;47.014;7.652;2023-08-06T10:15:15;2.45;;;2.35;;
64950;SDS011;51482;47.014;7.652;2023-08-06T10:17:45;1.50;;;1.50;;
64950;SDS011;51482;47.014;7.652;2023-08-06T10:20:15;1.40;;;1.40;;
64950;SDS011;51482;47.014;7.652;2023-08-06T10:22:43;2.08;;;1.70;;
64950;SDS011;51482;47.014;7.652;2023-08-06T10:25:10;1.05;;;1.05;;
64950;SDS011;51482;47.014;7.652;2023-08-06T10:27:52;1.17;;;1.17;;
64950;SDS011;51482;47.014;7.652;2023-08-06T10:32:58;1.17;;;1.17;;
64950;SDS011;51482;47.014;7.652;2023-08-06T10:38:00;3.70;;;1.33;;
64950;SDS011;51482;47.014;7.652;2023-08-06T10:40:34;1.67;;;1.55;;
64950;SDS011;51482;47.014;7.652;2023-08-06T10:43:01;1.40;;;1.40;;
64950;SDS011;51482;47.014;7.652;2023-08-06T10:45:27;2.47;;;2.38;;
64950;SDS011;51482;47.014;7.652;2023-08-06T10:47:54;2.30;;;2.20;;
64950;SDS011;51482;47.014;7.652;2023-08-06T10:50:22;2.97;;;2.80;;
64950;SDS011;51482;47.014;7.652;2023-08-06T10:52:47;2.05;;;1.95;;
64950;SDS011;51482;47.014;7.652;2023-08-06T10:55:13;1.42;;;1.30;;
64950;SDS011;51482;47.014;7.652;2023-08-06T10:57:46;3.72;;;3.53;;
64950;SDS011;51482;47.014;7.652;2023-08-06T11:00:12;2.90;;;2.80;;
64950;SDS011;51482;47.014;7.652;2023-08-06T11:02:39;2.40;;;2.30;;
64950;SDS011;51482;47.014;7.652;2023-08-06T11:05:08;2.58;;;2.45;;
64950;SDS011;51482;47.014;7.652;2023-08-06T11:07:35;3.15;;;3.05;;
64950;SDS011;51482;47.014;7.652;2023-08-06T11:10:02;1.40;;;1.40;;
64950;SDS011;51482;47.014;7.652;2023-08-06T11:12:28;3.67;;;3.10;;
64950;SDS011;51482;47.014;7.652;2023-08-06T11:14:54;2.17;;;2.08;;
64950;SDS011;51482;47.014;7.652;2023-08-06T11:17:21;2.35;;;2.25;;
64950;SDS011;51482;47.014;7.652;2023-08-06T11:19:46;2.08;;;1.98;;
64950;SDS011;51482;47.014;7.652;2023-08-06T11:22:12;2.85;;;2.75;;
64950;SDS011;51482;47.014;7.652;2023-08-06T11:24:39;1.52;;;1.52;;
64950;SDS011;51482;47.014;7.652;2023-08-06T11:27:11;1.50;;;0.77;;
64950;SDS011;51482;47.014;7.652;2023-08-06T11:29:41;1.23;;;1.23;;
64950;SDS011;51482;47.014;7.652;2023-08-06T11:32:08;2.97;;;0.90;;
64950;SDS011;51482;47.014;7.652;2023-08-06T11:34:34;0.95;;;0.88;;
64950;SDS011;51482;47.014;7.652;2023-08-06T11:37:02;0.90;;;0.90;;
64950;SDS011;51482;47.014;7.652;2023-08-06T11:39:30;1.10;;;1.05;;
64950;SDS011;51482;47.014;7.652;2023-08-06T11:41:57;2.05;;;1.85;;
64950;SDS011;51482;47.014;7.652;2023-08-06T11:44:25;1.10;;;1.00;;
64950;SDS011;51482;47.014;7.652;2023-08-06T11:46:54;1.30;;;1.20;;
64950;SDS011;51482;47.014;7.652;2023-08-06T11:50:06;0.80;;;0.70;;
64950;SDS011;51482;47.014;7.652;2023-08-06T11:54:59;1.02;;;1.02;;
64950;SDS011;51482;47.014;7.652;2023-08-06T11:57:33;0.82;;;0.82;;
64950;SDS011;51482;47.014;7.652;2023-08-06T12:00:06;1.67;;;1.23;;
64950;SDS011;51482;47.014;7.652;2023-08-06T12:02:34;0.77;;;0.77;;
64950;SDS011;51482;47.014;7.652;2023-08-06T12:05:09;0.90;;;0.90;;
64950;SDS011;51482;47.014;7.652;2023-08-06T12:07:37;0.70;;;0.70;;
64950;SDS011;51482;47.014;7.652;2023-08-06T12:10:04;0.50;;;0.50;;
64950;SDS011;51482;47.014;7.652;2023-08-06T12:12:30;0.40;;;0.40;;
64950;SDS011;51482;47.014;7.652;2023-08-06T12:14:56;0.45;;;0.45;;
64950;SDS011;51482;47.014;7.652;2023-08-06T12:17:22;0.60;;;0.60;;
64950;SDS011;51482;47.014;7.652;2023-08-06T12:19:49;0.88;;;0.88;;
64950;SDS011;51482;47.014;7.652;2023-08-06T12:22:15;0.60;;;0.60;;
64950;SDS011;51482;47.014;7.652;2023-08-06T12:24:41;1.08;;;1.05;;
64950;SDS011;51482;47.014;7.652;2023-08-06T12:27:08;0.60;;;0.60;;
64950;SDS011;51482;47.014;7.652;2023-08-06T12:29:34;0.77;;;0.77;;
64950;SDS011;51482;47.014;7.652;2023-08-06T12:32:00;0.88;;;0.88;;
64950;SDS011;51482;47.014;7.652;2023-08-06T12:34:25;0.63;;;0.63;;
64950;SDS011;51482;47.014;7.652;2023-08-06T12:36:51;0.80;;;0.80;;
64950;SDS011;51482;47.014;7.652;2023-08-06T12:39:17;1.17;;;0.65;;
64950;SDS011;51482;47.014;7.652;2023-08-06T12:41:43;1.10;;;1.10;;
64950;SDS011;51482;47.014;7.652;2023-08-06T12:44:10;0.80;;;0.80;;
64950;SDS011;51482;47.014;7.652;2023-08-06T12:46:36;0.75;;;0.75;;
64950;SDS011;51482;47.014;7.652;2023-08-06T12:49:02;0.98;;;0.98;;
64950;SDS011;51482;47.014;7.652;2023-08-06T12:51:28;0.90;;;0.70;;
64950;SDS011;51482;47.014;7.652;2023-08-06T12:53:53;0.73;;;0.73;;
64950;SDS011;51482;47.014;7.652;2023-08-06T12:56:19;1.17;;;0.75;;
64950;SDS011;51482;47.014;7.652;2023-08-06T12:58:44;1.65;;;1.20;;
64950;SDS011;51482;47.014;7.652;2023-08-06T13:01:10;0.70;;;0.70;;
64950;SDS011;51482;47.014;7.652;2023-08-06T13:03:35;0.82;;;0.82;;
64950;SDS011;51482;47.014;7.652;2023-08-06T13:06:01;0.70;;;0.70;;
64950;SDS011;51482;47.014;7.652;2023-08-06T13:08:26;1.13;;;1.13;;
64950;SDS011;51482;47.014;7.652;2023-08-06T13:10:52;1.30;;;1.30;;
64950;SDS011;51482;47.014;7.652;2023-08-06T13:13:18;1.25;;;0.68;;
64950;SDS011;51482;47.014;7.652;2023-08-06T13:15:43;1.50;;;1.40;;
64950;SDS011;51482;47.014;7.652;2023-08-06T13:18:09;0.80;;;0.80;;
64950;SDS011;51482;47.014;7.652;2023-08-06T13:20:34;1.35;;;1.35;;
64950;SDS011;51482;47.014;7.652;2023-08-06T13:23:03;1.70;;;1.60;;
64950;SDS011;51482;47.014;7.652;2023-08-06T13:25:28;1.50;;;1.50;;
64950;SDS011;51482;47.014;7.652;2023-08-06T13:27:54;1.23;;;1.20;;
64950;SDS011;51482;47.014;7.652;2023-08-06T13:30:20;1.35;;;1.30;;
64950;SDS011;51482;47.014;7.652;2023-08-06T13:32:45;1.40;;;1.30;;
64950;SDS011;51482;47.014;7.652;2023-08-06T13:35:11;1.25;;;1.02;;
64950;SDS011;51482;47.014;7.652;2023-08-06T13:37:37;1.48;;;1.27;;
64950;SDS011;51482;47.014;7.652;2023-08-06T13:40:02;1.10;;;1.02;;
64950;SDS011;51482;47.014;7.652;2023-08-06T13:42:29;1.42;;;1.42;;
64950;SDS011;51482;47.014;7.652;2023-08-06T13:44:57;1.65;;;1.58;;
64950;SDS011;51482;47.014;7.652;2023-08-06T13:47:27;1.75;;;1.25;;
64950;SDS011;51482;47.014;7.652;2023-08-06T13:49:53;2.03;;;1.77;;
64950;SDS011;51482;47.014;7.652;2023-08-06T13:52:19;1.23;;;1.13;;
64950;SDS011;51482;47.014;7.652;2023-08-06T13:54:45;2.03;;;1.17;;
64950;SDS011;51482;47.014;7.652;2023-08-06T13:57:11;1.05;;;1.05;;
64950;SDS011;51482;47.014;7.652;2023-08-06T13:59:37;1.55;;;1.30;;
64950;SDS011;51482;47.014;7.652;2023-08-06T14:02:03;1.90;;;1.25;;
64950;SDS011;51482;47.014;7.652;2023-08-06T14:04:29;1.10;;;1.10;;
64950;SDS011;51482;47.014;7.652;2023-08-06T14:06:54;1.00;;;1.00;;
64950;SDS011;51482;47.014;7.652;2023-08-06T14:09:20;1.08;;;1.00;;
64950;SDS011;51482;47.014;7.652;2023-08-06T14:11:45;1.02;;;1.02;;
64950;SDS011;51482;47.014;7.652;2023-08-06T14:14:11;0.80;;;0.70;;
64950;SDS011;51482;47.014;7.652;2023-08-06T14:16:37;0.95;;;0.95;;
64950;SDS011;51482;47.014;7.652;2023-08-06T14:19:03;0.52;;;0.52;;
64950;SDS011;51482;47.014;7.652;2023-08-06T14:21:28;0.90;;;0.90;;
64950;SDS011;51482;47.014;7.652;2023-08-06T14:23:54;1.10;;;1.10;;
64950;SDS011;51482;47.014;7.652;2023-08-06T14:26:20;1.10;;;1.10;;
64950;SDS011;51482;47.014;7.652;2023-08-06T14:28:45;1.20;;;1.10;;
64950;SDS011;51482;47.014;7.652;2023-08-06T14:31:11;1.73;;;0.80;;
64950;SDS011;51482;47.014;7.652;2023-08-06T14:33:37;1.20;;;1.15;;
64950;SDS011;51482;47.014;7.652;2023-08-06T14:36:03;1.10;;;1.02;;
64950;SDS011;51482;47.014;7.652;2023-08-06T14:38:28;0.80;;;0.80;;
64950;SDS011;51482;47.014;7.652;2023-08-06T14:40:54;0.90;;;0.90;;
64950;SDS011;51482;47.014;7.652;2023-08-06T14:43:19;2.80;;;1.05;;
64950;SDS011;51482;47.014;7.652;2023-08-06T14:45:45;2.42;;;1.13;;
64950;SDS011;51482;47.014;7.652;2023-08-06T14:48:11;0.80;;;0.80;;
64950;SDS011;51482;47.014;7.652;2023-08-06T14:50:36;0.77;;;0.77;;
64950;SDS011;51482;47.014;7.652;2023-08-06T14:53:04;1.85;;;0.88;;
64950;SDS011;51482;47.014;7.652;2023-08-06T14:55:30;0.90;;;0.90;;
64950;SDS011;51482;47.014;7.652;2023-08-06T14:57:57;0.77;;;0.77;;
64950;SDS011;51482;47.014;7.652;2023-08-06T15:00:22;1.42;;;1.33;;
64950;SDS011;51482;47.014;7.652;2023-08-06T15:02:48;1.10;;;1.10;;
64950;SDS011;51482;47.014;7.652;2023-08-06T15:05:14;1.88;;;1.73;;
64950;SDS011;51482;47.014;7.652;2023-08-06T15:07:39;1.98;;;1.88;;